Time;durP1;ratioP1;P1;durP2;ratioP2;P2;SDS_P1;SDS_P2;PMS_P1;PMS_P2;Temp;Humidity;BMP_temperature;BMP_pressure;BME280_temperature;BME280_humidity;BME280_pressure;Samples;Min_cycle;Max_cycle;Signal;HPM_P1;HPM_P2
2022/07/21 00:02:01;;;;;;;;;;;;;;;;;;5006072;28;19982;-43
2022/07/21 00:04:27;;;;;;;;;;;;;;;;;;5005118;28;19921;-43
2022/07/21 00:06:53;;;;;;;;;;;;;;;;;;5005525;28;20398;-44
2022/07/21 00:09:19;;;;;;;;;;;;;;;;;;5003928;28;19929;-44
2022/07/21 00:11:45;;;;;;;;;;;;;;;;;;5003462;28;19910;-41
2022/07/21 00:14:11;;;;;;;;;;;;;;;;;;5006533;28;19909;-42
2022/07/21 00:16:39;;;;;;;;;;;;;;;;;;5003492;28;20329;-43
2022/07/21 00:19:06;;;;;;;;;;;;;;;;;;5005277;28;19913;-43
2022/07/21 00:21:32;;;;;;;;;;;;;;;;;;5005737;28;20393;-43
2022/07/21 00:23:57;;;;;;;;;;;;;;;;;;5004265;28;20021;-42
2022/07/21 00:26:23;;;;;;;;;;;;;;;;;;5005519;28;19917;-43
2022/07/21 00:28:49;;;;;;;;;;;;;;;;;;5005760;28;20417;-43
2022/07/21 00:31:16;;;;;;;;;;;;;;;;;;5005638;28;19915;-43
2022/07/21 00:33:42;;;;;;;;;;;;;;;;;;5006022;28;19909;-42
2022/07/21 00:36:08;;;;;;;;;;;;;;;;;;5005015;28;19925;-42
2022/07/21 00:38:34;;;;;;;;;;;;;;;;;;5003572;28;21028;-43
2022/07/21 00:41:00;;;;;;;;;;;;;;;;;;4986456;28;19925;-42
2022/07/21 00:43:26;;;;;;;;;;;;;;;;;;4985771;28;19916;-43
2022/07/21 00:45:52;;;;;;;;;;;;;;;;;;4985710;28;19918;-43
2022/07/21 00:48:17;;;;;;;;;;;;;;;;;;4985461;28;20358;-43
2022/07/21 00:50:43;;;;;;;;;;;;;;;;;;4986625;28;19933;-43
2022/07/21 00:53:09;;;;;;;;;;;;;;;;;;4985656;28;20083;-43
2022/07/21 00:55:35;;;;;;;;;;;;;;;;;;4985677;28;20410;-44
2022/07/21 00:58:01;;;;;;;;;;;;;;;;;;4985812;28;19910;-43
2022/07/21 01:00:28;;;;;;;;;;;;;;;;;;4985616;28;20413;-43
2022/07/21 01:02:54;;;;;;;;;;;;;;;;;;4985609;28;20315;-43
2022/07/21 01:05:20;;;;;;;;;;;;;;;;;;4985152;28;19917;-43
2022/07/21 01:07:46;;;;;;;;;;;;;;;;;;4985466;28;20399;-42
2022/07/21 01:10:12;;;;;;;;;;;;;;;;;;4986017;28;19916;-43
2022/07/21 01:12:37;;;;;;;;;;;;;;;;;;4985449;28;19913;-45
2022/07/21 01:15:03;;;;;;;;;;;;;;;;;;4985564;28;19914;-43
2022/07/21 01:17:29;;;;;;;;;;;;;;;;;;4985782;28;19964;-42
2022/07/21 01:19:55;;;;;;;;;;;;;;;;;;4985215;28;19917;-45
2022/07/21 01:22:21;;;;;;;;;;;;;;;;;;4984838;28;19910;-42
2022/07/21 01:24:47;;;;;;;;;;;;;;;;;;4985494;28;19961;-43
2022/07/21 01:27:13;;;;;;;;;;;;;;;;;;4985819;28;19914;-44
2022/07/21 01:29:39;;;;;;;;;;;;;;;;;;4985828;28;19918;-42
2022/07/21 01:32:05;;;;;;;;;;;;;;;;;;4985121;28;20016;-44
2022/07/21 01:34:31;;;;;;;;;;;;;;;;;;4985256;28;19909;-41
2022/07/21 01:36:57;;;;;;;;;;;;;;;;;;4986464;28;19924;-42
2022/07/21 01:42:08;;;;;;;;;;;;;;;;;;5005693;28;19924;-43
2022/07/21 01:44:34;;;;;;;;;;;;;;;;;;5008826;28;20165;-43
2022/07/21 01:47:01;;;;;;;;;;;;;;;;;;5008292;28;20351;-42
2022/07/21 01:49:27;;;;;;;;;;;;;;;;;;5008379;28;19910;-41
2022/07/21 01:51:53;;;;;;;;;;;;;;;;;;5008351;28;19971;-43
2022/07/21 01:54:19;;;;;;;;;;;;;;;;;;5007998;28;19956;-43
2022/07/21 01:56:44;;;;;;;;;;;;;;;;;;5006579;28;19917;-42
2022/07/21 01:59:10;;;;;;;;;;;;;;;;;;5008560;28;20056;-42
2022/07/21 02:01:36;;;;;;;;;;;;;;;;;;5008172;28;19932;-42
2022/07/21 02:04:02;;;;;;;;;;;;;;;;;;4998026;28;20353;-42
2022/07/21 02:06:28;;;;;;;;;;;;;;;;;;4988602;28;20354;-42
2022/07/21 02:08:55;;;;;;;;;;;;;;;;;;4989194;28;19916;-41
2022/07/21 02:11:21;;;;;;;;;;;;;;;;;;4995933;28;20012;-42
2022/07/21 02:13:47;;;;;;;;;;;;;;;;;;5008506;28;20197;-41
2022/07/21 02:16:14;;;;;;;;;;;;;;;;;;5002282;28;19948;-43
2022/07/21 02:18:40;;;;;;;;;;;;;;;;;;5008385;28;20417;-42
2022/07/21 02:21:05;;;;;;;;;;;;;;;;;;5007760;28;19949;-42
2022/07/21 02:23:31;;;;;;;;;;;;;;;;;;5007825;28;19988;-43
2022/07/21 02:25:57;;;;;;;;;;;;;;;;;;5007775;28;19913;-42
2022/07/21 02:28:23;;;;;;;;;;;;;;;;;;5007787;28;19921;-42
2022/07/21 02:30:49;;;;;;;;;;;;;;;;;;5005680;28;19945;-42
2022/07/21 02:33:15;;;;;;;;;;;;;;;;;;5007298;28;20007;-42
2022/07/21 02:35:42;;;;;;;;;;;;;;;;;;5006236;28;20438;-43
2022/07/21 02:38:08;;;;;;;;;;;;;;;;;;5007450;28;19917;-44
2022/07/21 02:40:34;;;;;;;;;;;;;;;;;;5007713;28;20347;-42
2022/07/21 02:43:00;;;;;;;;;;;;;;;;;;5007839;28;19967;-41
2022/07/21 02:45:27;;;;;;;;;;;;;;;;;;5007232;28;20118;-43
2022/07/21 02:47:53;;;;;;;;;;;;;;;;;;5005404;28;20333;-42
2022/07/21 02:50:20;;;;;;;;;;;;;;;;;;5007143;28;19959;-42
2022/07/21 02:52:46;;;;;;;;;;;;;;;;;;5006633;28;19953;-42
2022/07/21 02:55:12;;;;;;;;;;;;;;;;;;5007149;28;19910;-42
2022/07/21 02:57:38;;;;;;;;;;;;;;;;;;5007341;28;19917;-43
2022/07/21 03:00:04;;;;;;;;;;;;;;;;;;5007081;28;19913;-42
2022/07/21 03:02:30;;;;;;;;;;;;;;;;;;5006160;28;19950;-42
2022/07/21 03:04:56;;;;;;;;;;;;;;;;;;5007226;28;19913;-43
2022/07/21 03:07:23;;;;;;;;;;;;;;;;;;5007265;28;19920;-43
2022/07/21 03:09:49;;;;;;;;;;;;;;;;;;5007078;28;19913;-42
2022/07/21 03:12:14;;;;;;;;;;;;;;;;;;5007635;28;19914;-42
2022/07/21 03:14:40;;;;;;;;;;;;;;;;;;5007409;28;19914;-42
2022/07/21 03:17:06;;;;;;;;;;;;;;;;;;5004552;28;19981;-43
2022/07/21 03:19:32;;;;;;;;;;;;;;;;;;5006985;28;19910;-43
2022/07/21 03:21:58;;;;;;;;;;;;;;;;;;5007032;28;20448;-44
2022/07/21 03:24:24;;;;;;;;;;;;;;;;;;5004390;28;19968;-44
2022/07/21 03:26:50;;;;;;;;;;;;;;;;;;5006767;28;19914;-43
2022/07/21 03:29:16;;;;;;;;;;;;;;;;;;5006383;28;20398;-43
2022/07/21 03:31:43;;;;;;;;;;;;;;;;;;5007091;28;19910;-42
2022/07/21 03:34:09;;;;;;;;;;;;;;;;;;5004351;28;20433;-43
2022/07/21 03:36:35;;;;;;;;;;;;;;;;;;5006294;28;20048;-42
2022/07/21 03:39:00;;;;;;;;;;;;;;;;;;5006694;28;19917;-42
2022/07/21 03:41:26;;;;;;;;;;;;;;;;;;5006300;28;19933;-42
2022/07/21 03:43:53;;;;;;;;;;;;;;;;;;5006337;28;19928;-43
2022/07/21 03:46:19;;;;;;;;;;;;;;;;;;5005698;28;19923;-42
2022/07/21 03:48:45;;;;;;;;;;;;;;;;;;5004995;28;20012;-41
2022/07/21 03:51:11;;;;;;;;;;;;;;;;;;5006594;28;19929;-42
2022/07/21 03:53:37;;;;;;;;;;;;;;;;;;5006469;28;19913;-42
2022/07/21 03:56:03;;;;;;;;;;;;;;;;;;4995693;28;20009;-42
2022/07/21 03:58:29;;;;;;;;;;;;;;;;;;4986574;28;19914;-42
2022/07/21 04:00:54;;;;;;;;;;;;;;;;;;4986113;28;20418;-42
2022/07/21 04:03:20;;;;;;;;;;;;;;;;;;4986284;28;19957;-43
2022/07/21 04:05:46;;;;;;;;;;;;;;;;;;4985920;28;20317;-41
2022/07/21 04:08:13;;;;;;;;;;;;;;;;;;4986865;28;19910;-42
2022/07/21 04:10:40;;;;;;;;;;;;;;;;;;4985752;28;20020;-42
2022/07/21 04:13:06;;;;;;;;;;;;;;;;;;4985670;28;19913;-42
2022/07/21 04:15:32;;;;;;;;;;;;;;;;;;4989569;28;20091;-42
2022/07/21 04:17:58;;;;;;;;;;;;;;;;;;4986006;28;19914;-43
2022/07/21 04:20:25;;;;;;;;;;;;;;;;;;4986154;28;19945;-43
2022/07/21 04:22:50;;;;;;;;;;;;;;;;;;4986336;28;19914;-42
2022/07/21 04:25:17;;;;;;;;;;;;;;;;;;4985756;28;20133;-41
2022/07/21 04:27:43;;;;;;;;;;;;;;;;;;4986513;28;19922;-43
2022/07/21 04:30:09;;;;;;;;;;;;;;;;;;4985601;28;19918;-41
2022/07/21 04:32:35;;;;;;;;;;;;;;;;;;4986012;28;19914;-43
2022/07/21 04:35:01;;;;;;;;;;;;;;;;;;4985932;28;19914;-42
2022/07/21 04:37:27;;;;;;;;;;;;;;;;;;4985974;28;19916;-42
2022/07/21 04:39:54;;;;;;;;;;;;;;;;;;4985922;28;19953;-44
2022/07/21 04:42:20;;;;;;;;;;;;;;;;;;4985934;28;19917;-43
2022/07/21 04:44:46;;;;;;;;;;;;;;;;;;4985978;28;19922;-43
2022/07/21 04:47:11;;;;;;;;;;;;;;;;;;4985756;28;19929;-42
2022/07/21 04:49:37;;;;;;;;;;;;;;;;;;4986028;28;19913;-42
2022/07/21 04:52:03;;;;;;;;;;;;;;;;;;4987229;28;19920;-42
2022/07/21 04:54:29;;;;;;;;;;;;;;;;;;5005203;28;19968;-42
2022/07/21 04:56:56;;;;;;;;;;;;;;;;;;5005395;28;19913;-42
2022/07/21 04:59:22;;;;;;;;;;;;;;;;;;5005232;28;19916;-42
2022/07/21 05:01:49;;;;;;;;;;;;;;;;;;5005021;28;20382;-41
2022/07/21 05:04:15;;;;;;;;;;;;;;;;;;5005693;28;19910;-44
2022/07/21 05:06:41;;;;;;;;;;;;;;;;;;5003064;28;19913;-43
2022/07/21 05:09:09;;;;;;;;;;;;;;;;;;4985023;28;21079;-42
2022/07/21 05:11:35;;;;;;;;;;;;;;;;;;4985604;28;19909;-42
2022/07/21 05:14:01;;;;;;;;;;;;;;;;;;4985841;28;19914;-43
2022/07/21 05:16:26;;;;;;;;;;;;;;;;;;4985341;28;19988;-42
2022/07/21 05:18:53;;;;;;;;;;;;;;;;;;4989215;28;20469;-42
2022/07/21 05:21:19;;;;;;;;;;;;;;;;;;4989424;28;20430;-42
2022/07/21 05:23:45;;;;;;;;;;;;;;;;;;4990186;28;19910;-43
2022/07/21 05:26:12;;;;;;;;;;;;;;;;;;4988820;28;19926;-43
2022/07/21 05:28:38;;;;;;;;;;;;;;;;;;4989329;28;19925;-42
2022/07/21 05:31:03;;;;;;;;;;;;;;;;;;4988807;28;20374;-42
2022/07/21 05:33:29;;;;;;;;;;;;;;;;;;4989038;28;19968;-42
2022/07/21 05:35:56;;;;;;;;;;;;;;;;;;4989097;28;20379;-42
2022/07/21 05:38:22;;;;;;;;;;;;;;;;;;4989266;28;19941;-43
2022/07/21 05:40:48;;;;;;;;;;;;;;;;;;4988943;28;20377;-41
2022/07/21 05:43:14;;;;;;;;;;;;;;;;;;4989652;28;19910;-43
2022/07/21 05:45:41;;;;;;;;;;;;;;;;;;4988636;28;20005;-43
2022/07/21 05:48:07;;;;;;;;;;;;;;;;;;4995237;28;20602;-43
2022/07/21 05:50:33;;;;;;;;;;;;;;;;;;5008868;28;19953;-41
2022/07/21 05:52:58;;;;;;;;;;;;;;;;;;5008857;28;20003;-42
2022/07/21 05:55:24;;;;;;;;;;;;;;;;;;5007977;28;20333;-43
2022/07/21 05:57:50;;;;;;;;;;;;;;;;;;5006208;28;19910;-42
2022/07/21 06:00:16;;;;;;;;;;;;;;;;;;4989187;28;19918;-41
2022/07/21 06:02:42;;;;;;;;;;;;;;;;;;4988429;28;19918;-43
2022/07/21 06:05:10;;;;;;;;;;;;;;;;;;4988005;28;19976;-42
2022/07/21 06:07:36;;;;;;;;;;;;;;;;;;4988424;28;19918;-42
2022/07/21 06:10:02;;;;;;;;;;;;;;;;;;5001469;28;20323;-42
2022/07/21 06:12:28;;;;;;;;;;;;;;;;;;5008709;28;20064;-42
2022/07/21 06:14:55;;;;;;;;;;;;;;;;;;5006106;28;20290;-42
2022/07/21 06:17:21;;;;;;;;;;;;;;;;;;5007894;28;19910;-43
2022/07/21 06:19:46;;;;;;;;;;;;;;;;;;5008580;28;20310;-43
2022/07/21 06:22:12;;;;;;;;;;;;;;;;;;5000171;28;19960;-42
2022/07/21 06:24:38;;;;;;;;;;;;;;;;;;4988345;28;19979;-42
2022/07/21 06:27:05;;;;;;;;;;;;;;;;;;4987721;28;19914;-42
2022/07/21 06:29:31;;;;;;;;;;;;;;;;;;4988045;28;19925;-42
2022/07/21 06:31:57;;;;;;;;;;;;;;;;;;4991072;28;20438;-43
2022/07/21 06:34:23;;;;;;;;;;;;;;;;;;4987988;28;19913;-42
2022/07/21 06:36:49;;;;;;;;;;;;;;;;;;4987931;28;20321;-41
2022/07/21 06:39:15;;;;;;;;;;;;;;;;;;4988562;28;20406;-42
2022/07/21 06:41:41;;;;;;;;;;;;;;;;;;4987823;28;19918;-42
2022/07/21 06:44:07;;;;;;;;;;;;;;;;;;4987803;28;19918;-42
2022/07/21 06:46:34;;;;;;;;;;;;;;;;;;4987621;28;20059;-42
2022/07/21 06:49:00;;;;;;;;;;;;;;;;;;4992289;28;20305;-42
2022/07/21 06:51:26;;;;;;;;;;;;;;;;;;4995951;28;19992;-41
2022/07/21 06:53:52;;;;;;;;;;;;;;;;;;4988722;28;19917;-42
2022/07/21 06:56:18;;;;;;;;;;;;;;;;;;5006300;28;19918;-41
2022/07/21 06:58:43;;;;;;;;;;;;;;;;;;5005732;28;19917;-41
2022/07/21 07:01:09;;;;;;;;;;;;;;;;;;4988691;28;19914;-41
2022/07/21 07:03:35;;;;;;;;;;;;;;;;;;4989372;28;19920;-40
2022/07/21 07:06:01;;;;;;;;;;;;;;;;;;5005023;28;20349;-41
2022/07/21 07:08:27;;;;;;;;;;;;;;;;;;5008630;28;20096;-40
2022/07/21 07:10:53;;;;;;;;;;;;;;;;;;4998500;28;19914;-41
2022/07/21 07:13:19;;;;;;;;;;;;;;;;;;5003359;28;19916;-40
2022/07/21 07:15:45;;;;;;;;;;;;;;;;;;5003439;28;19913;-40
2022/07/21 07:18:11;;;;;;;;;;;;;;;;;;4988564;28;19936;-41
2022/07/21 07:20:37;;;;;;;;;;;;;;;;;;4996731;28;20001;-40
2022/07/21 07:23:03;;;;;;;;;;;;;;;;;;5008247;28;19918;-40
2022/07/21 07:25:29;;;;;;;;;;;;;;;;;;5008083;28;19921;-40
2022/07/21 07:27:56;;;;;;;;;;;;;;;;;;5006749;28;19939;-40
2022/07/21 07:30:22;;;;;;;;;;;;;;;;;;4988199;28;19978;-40
2022/07/21 07:32:48;;;;;;;;;;;;;;;;;;4987314;28;20310;-40
2022/07/21 07:35:14;;;;;;;;;;;;;;;;;;4988717;28;19910;-41
2022/07/21 07:37:40;;;;;;;;;;;;;;;;;;4988389;28;20049;-40
2022/07/21 07:40:07;;;;;;;;;;;;;;;;;;4993954;28;19918;-41
2022/07/21 07:42:33;;;;;;;;;;;;;;;;;;4987860;28;20411;-41
2022/07/21 07:44:59;;;;;;;;;;;;;;;;;;4987462;28;19918;-42
2022/07/21 07:47:25;;;;;;;;;;;;;;;;;;4986073;28;20482;-41
2022/07/21 07:49:52;;;;;;;;;;;;;;;;;;4986361;28;19910;-41
2022/07/21 07:52:18;;;;;;;;;;;;;;;;;;4986324;28;19925;-41
2022/07/21 07:54:44;;;;;;;;;;;;;;;;;;4987132;28;19909;-41
2022/07/21 07:57:10;;;;;;;;;;;;;;;;;;4986541;28;19956;-40
2022/07/21 07:59:37;;;;;;;;;;;;;;;;;;4986481;28;19910;-41
2022/07/21 08:02:04;;;;;;;;;;;;;;;;;;4986546;28;19913;-41
2022/07/21 08:04:29;;;;;;;;;;;;;;;;;;4986393;28;20160;-41
2022/07/21 08:06:55;;;;;;;;;;;;;;;;;;4986755;28;19914;-41
2022/07/21 08:09:21;;;;;;;;;;;;;;;;;;4986139;28;20335;-41
2022/07/21 08:11:48;;;;;;;;;;;;;;;;;;4987015;28;20016;-41
2022/07/21 08:14:14;;;;;;;;;;;;;;;;;;4986255;28;19911;-41
2022/07/21 08:16:41;;;;;;;;;;;;;;;;;;4986284;28;19976;-41
2022/07/21 08:19:08;;;;;;;;;;;;;;;;;;4986220;28;19992;-42
2022/07/21 08:21:35;;;;;;;;;;;;;;;;;;4986301;28;20632;-41
2022/07/21 08:24:01;;;;;;;;;;;;;;;;;;4986350;28;19956;-41
2022/07/21 08:26:27;;;;;;;;;;;;;;;;;;4986067;28;19917;-42
2022/07/21 08:28:53;;;;;;;;;;;;;;;;;;4985507;28;20024;-41
2022/07/21 08:31:19;;;;;;;;;;;;;;;;;;4993998;28;19918;-41
2022/07/21 08:33:44;;;;;;;;;;;;;;;;;;5000883;28;19944;-42
2022/07/21 08:36:10;;;;;;;;;;;;;;;;;;5006044;28;19921;-42
2022/07/21 08:38:36;;;;;;;;;;;;;;;;;;5006094;28;19960;-41
2022/07/21 08:41:02;;;;;;;;;;;;;;;;;;5006662;28;19988;-42
2022/07/21 08:43:28;;;;;;;;;;;;;;;;;;5006934;28;19925;-42
2022/07/21 08:45:54;;;;;;;;;;;;;;;;;;5006585;28;19914;-41
2022/07/21 08:48:21;;;;;;;;;;;;;;;;;;5003917;28;19914;-41
2022/07/21 08:50:48;;;;;;;;;;;;;;;;;;5005952;28;19913;-41
2022/07/21 08:53:14;;;;;;;;;;;;;;;;;;5005891;28;19913;-41
2022/07/21 08:55:40;;;;;;;;;;;;;;;;;;5005534;28;19928;-41
2022/07/21 08:58:06;;;;;;;;;;;;;;;;;;5005318;28;19910;-41
2022/07/21 09:00:34;;;;;;;;;;;;;;;;;;5005455;28;19953;-40
2022/07/21 09:03:01;;;;;;;;;;;;;;;;;;5005297;28;19909;-42
2022/07/21 09:05:27;;;;;;;;;;;;;;;;;;5005162;28;19972;-41
2022/07/21 09:07:57;;;;;;;;;;;;;;;;;;5005457;28;19975;-41
2022/07/21 09:10:24;;;;;;;;;;;;;;;;;;5005028;28;19914;-41
2022/07/21 09:12:50;;;;;;;;;;;;;;;;;;5005196;28;20028;-41
2022/07/21 09:15:16;;;;;;;;;;;;;;;;;;5005616;28;20040;-41
2022/07/21 09:17:42;;;;;;;;;;;;;;;;;;5005200;28;20518;-41
2022/07/21 09:20:08;;;;;;;;;;;;;;;;;;5005048;28;20019;-41
2022/07/21 09:22:33;;;;;;;;;;;;;;;;;;5005312;28;19913;-41
2022/07/21 09:25:00;;;;;;;;;;;;;;;;;;5005103;28;19914;-41
2022/07/21 09:27:26;;;;;;;;;;;;;;;;;;5005064;28;20295;-41
2022/07/21 09:29:53;;;;;;;;;;;;;;;;;;5005049;28;19920;-41
2022/07/21 09:32:19;;;;;;;;;;;;;;;;;;5004938;28;19981;-42
2022/07/21 09:34:45;;;;;;;;;;;;;;;;;;5005717;28;19992;-41
2022/07/21 09:37:11;;;;;;;;;;;;;;;;;;5005013;28;20000;-41
2022/07/21 09:39:38;;;;;;;;;;;;;;;;;;5005318;28;19913;-42
2022/07/21 09:42:04;;;;;;;;;;;;;;;;;;5004780;28;19918;-42
2022/07/21 09:44:31;;;;;;;;;;;;;;;;;;5004813;28;19916;-41
2022/07/21 09:46:57;;;;;;;;;;;;;;;;;;5004850;28;19910;-41
2022/07/21 09:49:23;;;;;;;;;;;;;;;;;;5005201;28;20310;-42
2022/07/21 09:51:49;;;;;;;;;;;;;;;;;;5005081;28;19918;-41
2022/07/21 09:54:15;;;;;;;;;;;;;;;;;;5005214;28;20322;-41
2022/07/21 09:56:41;;;;;;;;;;;;;;;;;;5004778;28;20012;-41
2022/07/21 09:59:08;;;;;;;;;;;;;;;;;;5004551;28;19916;-42
2022/07/21 10:01:35;;;;;;;;;;;;;;;;;;5005060;28;19979;-41
2022/07/21 10:04:02;;;;;;;;;;;;;;;;;;5007698;28;19909;-41
2022/07/21 10:06:28;;;;;;;;;;;;;;;;;;5008103;28;19922;-41
2022/07/21 10:08:54;;;;;;;;;;;;;;;;;;5008372;28;20383;-41
2022/07/21 10:11:20;;;;;;;;;;;;;;;;;;5008205;28;19999;-41
2022/07/21 10:13:46;;;;;;;;;;;;;;;;;;5008741;28;20394;-41
2022/07/21 10:16:12;;;;;;;;;;;;;;;;;;5007844;28;19909;-41
2022/07/21 10:18:38;;;;;;;;;;;;;;;;;;5008221;28;19960;-42
2022/07/21 10:21:04;;;;;;;;;;;;;;;;;;4995960;28;20383;-41
2022/07/21 10:23:31;;;;;;;;;;;;;;;;;;4998198;28;19940;-42
2022/07/21 10:25:57;;;;;;;;;;;;;;;;;;5008049;28;19913;-42
2022/07/21 10:28:23;;;;;;;;;;;;;;;;;;4989026;28;19929;-41
2022/07/21 10:30:49;;;;;;;;;;;;;;;;;;4993143;28;19925;-42
2022/07/21 10:33:15;;;;;;;;;;;;;;;;;;5008148;28;19913;-40
2022/07/21 10:35:41;;;;;;;;;;;;;;;;;;5009375;28;19936;-41
2022/07/21 10:38:08;;;;;;;;;;;;;;;;;;5009128;28;19913;-41
2022/07/21 10:40:34;;;;;;;;;;;;;;;;;;5008212;28;19918;-41
2022/07/21 10:43:00;;;;;;;;;;;;;;;;;;5009291;28;19910;-41
2022/07/21 10:45:27;;;;;;;;;;;;;;;;;;4993464;28;19961;-41
2022/07/21 10:47:53;;;;;;;;;;;;;;;;;;5003665;28;19917;-41
2022/07/21 10:50:19;;;;;;;;;;;;;;;;;;5008880;28;19948;-40
2022/07/21 10:52:45;;;;;;;;;;;;;;;;;;5004772;28;19922;-41
2022/07/21 10:55:12;;;;;;;;;;;;;;;;;;4995735;28;19918;-42
2022/07/21 10:57:38;;;;;;;;;;;;;;;;;;4989747;28;19918;-42
2022/07/21 11:00:04;;;;;;;;;;;;;;;;;;4988422;28;19936;-41
2022/07/21 11:02:30;;;;;;;;;;;;;;;;;;4987703;28;19914;-43
2022/07/21 11:04:56;;;;;;;;;;;;;;;;;;5002409;28;20333;-44
2022/07/21 11:07:22;;;;;;;;;;;;;;;;;;5002570;28;19920;-43
2022/07/21 11:09:48;;;;;;;;;;;;;;;;;;4989253;28;19918;-44
2022/07/21 11:12:14;;;;;;;;;;;;;;;;;;4988671;28;19914;-43
2022/07/21 11:14:41;;;;;;;;;;;;;;;;;;4987075;28;19913;-42
2022/07/21 11:17:07;;;;;;;;;;;;;;;;;;4998386;28;19957;-42
2022/07/21 11:19:37;;;;;;;;;;;;;;;;;;4988602;28;20466;-43
2022/07/21 11:22:03;;;;;;;;;;;;;;;;;;4988129;28;20429;-42
2022/07/21 11:24:29;;;;;;;;;;;;;;;;;;5001614;28;20243;-44
2022/07/21 11:26:55;;;;;;;;;;;;;;;;;;4993240;28;20183;-42
2022/07/21 11:29:22;;;;;;;;;;;;;;;;;;5005894;28;19921;-42
2022/07/21 11:31:48;;;;;;;;;;;;;;;;;;4993069;28;19913;-42
2022/07/21 11:34:13;;;;;;;;;;;;;;;;;;4986963;28;19921;-43
2022/07/21 11:36:40;;;;;;;;;;;;;;;;;;4985250;28;20302;-42
2022/07/21 11:39:06;;;;;;;;;;;;;;;;;;4986367;28;20001;-43
2022/07/21 11:41:32;;;;;;;;;;;;;;;;;;4985892;28;20344;-44
2022/07/21 11:43:58;;;;;;;;;;;;;;;;;;4997118;28;19913;-42
2022/07/21 11:46:24;;;;;;;;;;;;;;;;;;5005540;28;20338;-42
2022/07/21 11:48:50;;;;;;;;;;;;;;;;;;4990823;28;19988;-42
2022/07/21 11:51:16;;;;;;;;;;;;;;;;;;4991224;28;20411;-43
2022/07/21 11:53:43;;;;;;;;;;;;;;;;;;4989469;28;19968;-43
2022/07/21 11:56:09;;;;;;;;;;;;;;;;;;4998028;28;19928;-43
2022/07/21 11:58:35;;;;;;;;;;;;;;;;;;4985287;28;19918;-44
2022/07/21 12:01:01;;;;;;;;;;;;;;;;;;4986557;28;19925;-43
2022/07/21 12:03:27;;;;;;;;;;;;;;;;;;4988987;28;19913;-43
2022/07/21 12:05:53;;;;;;;;;;;;;;;;;;4985087;28;20262;-45
2022/07/21 12:08:19;;;;;;;;;;;;;;;;;;4991335;28;20067;-46
2022/07/21 12:10:44;;;;;;;;;;;;;;;;;;5005700;28;19914;-43
2022/07/21 12:13:10;;;;;;;;;;;;;;;;;;4994173;28;20303;-45
2022/07/21 12:15:36;;;;;;;;;;;;;;;;;;4995789;28;19914;-44
2022/07/21 12:18:03;;;;;;;;;;;;;;;;;;4985800;28;19921;-42
2022/07/21 12:20:29;;;;;;;;;;;;;;;;;;4985781;28;19924;-44
2022/07/21 12:22:55;;;;;;;;;;;;;;;;;;5001408;28;20365;-45
2022/07/21 12:25:22;;;;;;;;;;;;;;;;;;5003387;28;20054;-45
2022/07/21 12:27:49;;;;;;;;;;;;;;;;;;5004620;28;19932;-47
2022/07/21 12:30:15;;;;;;;;;;;;;;;;;;5005337;28;19913;-43
2022/07/21 12:32:41;;;;;;;;;;;;;;;;;;5005076;28;19960;-43
2022/07/21 12:35:07;;;;;;;;;;;;;;;;;;5003829;28;19917;-43
2022/07/21 12:37:34;;;;;;;;;;;;;;;;;;5003990;28;19910;-44
2022/07/21 12:40:00;;;;;;;;;;;;;;;;;;5003213;28;19956;-43
2022/07/21 12:42:27;;;;;;;;;;;;;;;;;;5004755;28;20194;-43
2022/07/21 12:44:52;;;;;;;;;;;;;;;;;;4993128;28;19918;-43
2022/07/21 12:47:18;;;;;;;;;;;;;;;;;;4985418;28;19910;-43
2022/07/21 12:49:44;;;;;;;;;;;;;;;;;;4989662;28;19968;-44
2022/07/21 12:52:10;;;;;;;;;;;;;;;;;;5004674;28;19920;-44
2022/07/21 12:54:37;;;;;;;;;;;;;;;;;;4987249;28;19917;-45
2022/07/21 12:57:04;;;;;;;;;;;;;;;;;;4984748;28;19960;-44
2022/07/21 12:59:31;;;;;;;;;;;;;;;;;;4985308;28;20069;-43
2022/07/21 13:01:58;;;;;;;;;;;;;;;;;;4985112;28;19909;-44
2022/07/21 13:04:24;;;;;;;;;;;;;;;;;;4998941;28;19922;-42
2022/07/21 13:06:50;;;;;;;;;;;;;;;;;;4991304;28;19921;-44
2022/07/21 13:09:16;;;;;;;;;;;;;;;;;;5004164;28;19913;-44
2022/07/21 13:11:43;;;;;;;;;;;;;;;;;;4999920;28;19917;-42
2022/07/21 13:14:10;;;;;;;;;;;;;;;;;;4990098;28;20000;-44
2022/07/21 13:16:36;;;;;;;;;;;;;;;;;;4995662;28;19917;-44
2022/07/21 13:19:02;;;;;;;;;;;;;;;;;;5004608;28;19916;-42
2022/07/21 13:21:28;;;;;;;;;;;;;;;;;;5004794;28;20122;-42
2022/07/21 13:23:54;;;;;;;;;;;;;;;;;;4998862;28;19913;-43
2022/07/21 13:26:20;;;;;;;;;;;;;;;;;;4988460;28;20021;-44
2022/07/21 13:28:46;;;;;;;;;;;;;;;;;;4993301;28;19948;-46
2022/07/21 13:31:11;;;;;;;;;;;;;;;;;;4984800;28;19921;-45
2022/07/21 13:33:37;;;;;;;;;;;;;;;;;;4985001;28;19985;-43
2022/07/21 13:36:04;;;;;;;;;;;;;;;;;;4985094;28;20286;-45
2022/07/21 13:38:30;;;;;;;;;;;;;;;;;;4987208;28;20606;-44
2022/07/21 13:40:56;;;;;;;;;;;;;;;;;;4998334;28;19914;-44
2022/07/21 13:43:22;;;;;;;;;;;;;;;;;;5008331;28;19913;-46
2022/07/21 13:45:48;;;;;;;;;;;;;;;;;;5007952;28;19925;-44
2022/07/21 13:48:14;;;;;;;;;;;;;;;;;;5008283;28;19913;-44
2022/07/21 13:50:40;;;;;;;;;;;;;;;;;;5005170;28;19993;-47
2022/07/21 13:53:06;;;;;;;;;;;;;;;;;;4988472;28;19914;-44
2022/07/21 13:55:33;;;;;;;;;;;;;;;;;;4986701;28;19918;-44
2022/07/21 13:57:59;;;;;;;;;;;;;;;;;;4987948;28;19993;-44
2022/07/21 14:00:25;;;;;;;;;;;;;;;;;;4999669;28;20036;-44
2022/07/21 14:02:51;;;;;;;;;;;;;;;;;;4998591;28;19918;-44
2022/07/21 14:05:17;;;;;;;;;;;;;;;;;;5005099;28;19924;-45
2022/07/21 14:07:43;;;;;;;;;;;;;;;;;;5003001;28;19913;-43
2022/07/21 14:10:09;;;;;;;;;;;;;;;;;;5003901;28;20617;-43
2022/07/21 14:12:35;;;;;;;;;;;;;;;;;;5007037;28;19964;-43
2022/07/21 14:15:02;;;;;;;;;;;;;;;;;;5008090;28;19917;-44
2022/07/21 14:17:28;;;;;;;;;;;;;;;;;;5007547;28;19917;-43
2022/07/21 14:19:54;;;;;;;;;;;;;;;;;;4994518;28;19941;-45
2022/07/21 14:22:21;;;;;;;;;;;;;;;;;;4986273;28;20395;-44
2022/07/21 14:27:32;;;;;;;;;;;;;;;;;;4988273;28;19929;-42
2022/07/21 14:29:58;;;;;;;;;;;;;;;;;;4988344;28;20088;-43
2022/07/21 14:32:24;;;;;;;;;;;;;;;;;;4987511;28;19920;-43
2022/07/21 14:34:50;;;;;;;;;;;;;;;;;;4989046;28;19910;-44
2022/07/21 14:37:16;;;;;;;;;;;;;;;;;;4989310;28;19921;-46
2022/07/21 14:39:42;;;;;;;;;;;;;;;;;;4989480;28;19920;-43
2022/07/21 14:42:09;;;;;;;;;;;;;;;;;;4989415;28;20024;-43
2022/07/21 14:44:35;;;;;;;;;;;;;;;;;;4990242;28;19916;-45
2022/07/21 14:47:01;;;;;;;;;;;;;;;;;;4989834;28;19914;-45
2022/07/21 14:49:26;;;;;;;;;;;;;;;;;;5005819;28;19960;-43
2022/07/21 14:51:52;;;;;;;;;;;;;;;;;;5009099;28;19917;-44
2022/07/21 14:54:18;;;;;;;;;;;;;;;;;;5008629;28;19905;-45
2022/07/21 14:56:45;;;;;;;;;;;;;;;;;;5008980;28;19909;-44
2022/07/21 14:59:11;;;;;;;;;;;;;;;;;;5007241;28;19917;-45
2022/07/21 15:01:37;;;;;;;;;;;;;;;;;;5008778;28;19956;-42
2022/07/21 15:04:03;;;;;;;;;;;;;;;;;;5009088;28;19960;-44
2022/07/21 15:06:29;;;;;;;;;;;;;;;;;;5008768;28;19913;-43
2022/07/21 15:08:58;;;;;;;;;;;;;;;;;;5007089;28;19948;-42
2022/07/21 15:11:24;;;;;;;;;;;;;;;;;;5008449;28;20298;-45
2022/07/21 15:13:50;;;;;;;;;;;;;;;;;;4994081;28;19921;-46
2022/07/21 15:16:16;;;;;;;;;;;;;;;;;;4992894;28;19917;-46
2022/07/21 15:18:42;;;;;;;;;;;;;;;;;;4998202;28;19956;-45
2022/07/21 15:21:08;;;;;;;;;;;;;;;;;;4988872;28;19924;-47
2022/07/21 15:23:34;;;;;;;;;;;;;;;;;;4989508;28;20297;-46
2022/07/21 15:26:00;;;;;;;;;;;;;;;;;;4989827;28;19940;-43
2022/07/21 15:28:26;;;;;;;;;;;;;;;;;;4999385;28;20372;-42
2022/07/21 15:30:52;;;;;;;;;;;;;;;;;;5008219;28;19913;-44
2022/07/21 15:33:18;;;;;;;;;;;;;;;;;;4990161;28;19910;-42
2022/07/21 15:35:44;;;;;;;;;;;;;;;;;;4988355;28;19917;-45
2022/07/21 15:38:10;;;;;;;;;;;;;;;;;;4998587;28;20379;-43
2022/07/21 15:40:36;;;;;;;;;;;;;;;;;;4999293;28;19933;-42
2022/07/21 15:43:02;;;;;;;;;;;;;;;;;;4991817;28;19918;-43
2022/07/21 15:45:28;;;;;;;;;;;;;;;;;;4988327;28;19917;-44
2022/07/21 15:47:54;;;;;;;;;;;;;;;;;;4988453;28;20016;-44
2022/07/21 15:50:20;;;;;;;;;;;;;;;;;;4993332;28;19920;-44
2022/07/21 15:52:46;;;;;;;;;;;;;;;;;;4988256;28;19914;-42
2022/07/21 15:55:12;;;;;;;;;;;;;;;;;;4987803;28;19914;-44
2022/07/21 15:57:38;;;;;;;;;;;;;;;;;;4988074;28;19988;-43
2022/07/21 16:00:04;;;;;;;;;;;;;;;;;;4992561;28;20286;-43
2022/07/21 16:02:30;;;;;;;;;;;;;;;;;;5006215;28;19910;-43
2022/07/21 16:04:56;;;;;;;;;;;;;;;;;;5003935;28;19924;-43
2022/07/21 16:07:22;;;;;;;;;;;;;;;;;;5006214;28;20465;-43
2022/07/21 16:09:48;;;;;;;;;;;;;;;;;;4988472;28;19972;-44
2022/07/21 16:12:14;;;;;;;;;;;;;;;;;;4986430;28;20306;-47
2022/07/21 16:14:40;;;;;;;;;;;;;;;;;;4986410;28;19914;-44
2022/07/21 16:17:06;;;;;;;;;;;;;;;;;;4984600;28;20567;-44
2022/07/21 16:19:32;;;;;;;;;;;;;;;;;;4986407;28;19914;-44
2022/07/21 16:21:58;;;;;;;;;;;;;;;;;;4986446;28;19921;-45
2022/07/21 16:24:24;;;;;;;;;;;;;;;;;;4984524;28;19913;-43
2022/07/21 16:26:50;;;;;;;;;;;;;;;;;;4985946;28;19914;-43
2022/07/21 16:29:16;;;;;;;;;;;;;;;;;;4986388;28;19928;-46
2022/07/21 16:31:43;;;;;;;;;;;;;;;;;;4986168;28;19981;-43
2022/07/21 16:34:10;;;;;;;;;;;;;;;;;;4985996;28;20000;-44
2022/07/21 16:36:36;;;;;;;;;;;;;;;;;;4986202;28;19913;-43
2022/07/21 16:39:02;;;;;;;;;;;;;;;;;;4985865;28;20021;-43
2022/07/21 16:41:29;;;;;;;;;;;;;;;;;;4986051;28;19914;-44
2022/07/21 16:43:54;;;;;;;;;;;;;;;;;;4985768;28;20371;-43